Scranton, Pennsylvania
Current Conditions -  °F | °C
As of 11:54 AM on Thursday 18 Dec 2014 (Local Time) from KAVP Reporting Station
Overcast Overcast  
Wind Chill: 27°   Ceiling: 2900
Heat Index: 35°   Visibility: 10mi
Dew Point: 23°   Wind: 12mph
Humidity: 61%   Direction: 320°NW
Pressure: 29.99"   Gusts: 23mph
Location:  41.41°N, 75.66°W
Report Text: KAVP 181654Z 32010G20KT 10SM OVC029 02/M05 A2999 RMK AO2 SLP162 T00171050
Loading
Personal Weather Stations






























Interactive Weather Map New forecast layout! Learn more

10-Day Weather Forecast

Advertisements
Track Severe Weather on mobile